»·PEaware :: RAKE71 KLSV-KLSV

RAKE71 :: KLSV-KLSV

FLIGHT INFORMATION

Flight Status: Arrived
Operator: Unknown
More flights by this operator :: More flights under this callsign
Pilot: Anonymous 3903 (3903)
Aircraft: NORTHROP F-5 FREEDON FIGHTER
(F5)
More flights by this aircraft type
Origin: KLSV Nellis AFB
United States
Destination: KLSV Nellis AFB
United States
More flights between these airports :: More routes between these airports
Route: +FYTTR3 FYTTR INS
File this flight plan on PilotEdge
Remarks: 30 min Delay in R-4806W
Altitude:
(Current/Filed)
16,000ft
Speed:
(Current/Filed)
350kts
Departed: 19-May-19 07:53 PM
Arrived: 19-May-19 08:36 PM
Distance/Time
Traveled:
0nm/0:42
Distance/Time
To Go:
Arrived

Flight Plot

Page will automatically refresh every two minutes.

Flight plan parsing failed; only flown route is shown


Map Options




Map Legend


Flown Route
Filed Route
Departure Airport
Arrival Airport
Navaid (VOR, NDB)
Fix

Horizontal Profiles

Position Reports

Time Latitude Longitude Heading Altitude Ground
Speed
19-May-19 19:31 36.230640 -115.047275 220 1853ft 0kts
19-May-19 19:32 36.230640 -115.047275 220 1853ft 0kts
19-May-19 19:33 36.230640 -115.047275 220 1853ft 0kts
19-May-19 19:34 36.230640 -115.047275 220 1853ft 0kts
19-May-19 19:35 36.230640 -115.047275 220 1853ft 0kts
19-May-19 19:36 36.230640 -115.047275 220 1853ft 0kts
19-May-19 19:37 36.230640 -115.047275 220 1853ft 0kts
19-May-19 19:38 36.230640 -115.047275 220 1853ft 0kts
19-May-19 19:38 36.230640 -115.047275 220 1853ft 0kts
19-May-19 19:40 36.230640 -115.047275 220 1853ft 0kts
19-May-19 19:41 36.230640 -115.047275 220 1853ft 0kts
19-May-19 19:41 36.230630 -115.047286 219 1853ft 0kts
19-May-19 19:42 36.230281 -115.047549 146 1853ft 5kts
19-May-19 19:44 36.232344 -115.043056 40 1853ft 18kts
19-May-19 19:44 36.235482 -115.039655 39 1858ft 19kts
19-May-19 19:45 36.241668 -115.032957 40 1861ft 26kts
19-May-19 19:47 36.246921 -115.031262 359 1863ft 17kts
19-May-19 19:47 36.246798 -115.026337 90 1861ft 8kts
19-May-19 19:48 36.246794 -115.026047 87 1861ft 0kts
19-May-19 19:49 36.246794 -115.026047 87 1861ft 0kts
19-May-19 19:50 36.246794 -115.026047 87 1861ft 0kts
19-May-19 19:51 36.246368 -115.025444 215 1861ft 5kts
19-May-19 19:52 36.237174 -115.035319 218 1864ft 193kts
19-May-19 19:53 36.231461 -115.094953 330 4722ft 284kts
19-May-19 19:54 36.275353 -115.166954 273 8621ft 288kts
19-May-19 19:55 36.285496 -115.271327 274 11682ft 315kts
19-May-19 19:56 36.303041 -115.378923 286 15039ft 322kts
19-May-19 19:57 36.375678 -115.456342 318 16622ft 379kts
19-May-19 19:58 36.469141 -115.543497 317 16652ft 459kts
19-May-19 19:59 36.574247 -115.651964 312 16609ft 511kts
19-May-19 20:00 36.683889 -115.613623 55 15383ft 551kts
19-May-19 20:01 36.734131 -115.436903 57 14329ft 530kts
19-May-19 20:02 36.849277 -115.406540 300 14404ft 445kts
19-May-19 20:03 36.771422 -115.458412 174 4802ft 441kts
19-May-19 20:04 36.819119 -115.398297 340 11578ft 395kts
19-May-19 20:05 36.784152 -115.458373 183 4044ft 444kts
19-May-19 20:06 36.782162 -115.391932 5 9925ft 354kts
19-May-19 20:07 36.871189 -115.424343 270 10741ft 380kts
19-May-19 20:08 36.772706 -115.453879 133 5060ft 355kts
19-May-19 20:09 36.853208 -115.401231 333 11180ft 370kts
19-May-19 20:10 36.816711 -115.458953 182 6494ft 413kts
19-May-19 20:11 36.744206 -115.421929 65 8655ft 328kts
19-May-19 20:12 36.836688 -115.384483 317 9352ft 404kts
19-May-19 20:13 36.789605 -115.460023 176 5350ft 464kts
19-May-19 20:14 36.777877 -115.392462 1 9977ft 373kts
19-May-19 20:15 36.836123 -115.451635 204 8925ft 412kts
19-May-19 20:16 36.742368 -115.439710 148 6632ft 324kts
19-May-19 20:17 36.789896 -115.445334 18 6099ft 372kts
19-May-19 20:18 36.882093 -115.422088 291 10837ft 338kts
19-May-19 20:19 36.841756 -115.513710 205 14374ft 349kts
19-May-19 20:20 36.745396 -115.556573 190 17884ft 370kts
19-May-19 20:21 36.660434 -115.619080 203 17494ft 368kts
19-May-19 20:22 36.572561 -115.649022 160 16298ft 309kts
19-May-19 20:23 36.522546 -115.554598 93 15950ft 384kts
19-May-19 20:24 36.538837 -115.408701 83 15376ft 470kts
19-May-19 20:25 36.558317 -115.235361 81 12994ft 538kts
19-May-19 20:26 36.574438 -115.091408 85 12408ft 365kts
19-May-19 20:27 36.561388 -114.965199 100 9966ft 365kts
19-May-19 20:28 36.543013 -114.842432 123 8142ft 346kts
19-May-19 20:29 36.459796 -114.828515 197 7521ft 311kts
19-May-19 20:30 36.385249 -114.877361 218 6790ft 313kts
19-May-19 20:31 36.321226 -114.943173 220 4509ft 284kts
19-May-19 20:32 36.260942 -115.010253 219 3125ft 267kts
19-May-19 20:33 36.260148 -115.048161 44 2620ft 220kts
19-May-19 20:34 36.251148 -115.020710 213 1945ft 133kts
19-May-19 20:35 36.234990 -115.037671 218 1853ft 24kts
19-May-19 20:36 36.234773 -115.041395 219 1856ft 5kts
19-May-19 20:37 36.234748 -115.041422 219 1856ft 0kts
19-May-19 20:38 36.234748 -115.041422 219 1856ft 0kts
19-May-19 20:39 36.234748 -115.041422 219 1856ft 0kts
19-May-19 20:40 36.234748 -115.041422 219 1856ft 0kts
19-May-19 20:41 36.234748 -115.041422 219 1856ft 0kts
19-May-19 20:42 36.234748 -115.041422 219 1856ft 0kts
19-May-19 20:43 36.234748 -115.041422 219 1856ft 0kts
19-May-19 20:44 36.234748 -115.041422 219 1856ft 0kts
19-May-19 20:45 36.234748 -115.041422 219 1856ft 0kts
19-May-19 20:46 36.234748 -115.041422 219 1856ft 0kts
19-May-19 20:47 36.234748 -115.041422 219 1856ft 0kts
19-May-19 20:48 36.234748 -115.041422 219 1856ft 0kts
19-May-19 20:49 36.234827 -115.040370 39 1857ft 27kts

Navigation Log

Ident Type
Flight plan parsing failed, navigation log unavailable